Terminal Aerodrome Forecast
Issued by NWS Milwaukee/Sullivan, WI

Home | Current Version | Previous Version | Text Only | Print | Product List | Glossary On
Versions: 1 2 3 4 5 6 7 8 9 10 11 12 13 14 15 16 17 18 19 20 21 22 23 24 25 26 27 28 29 30 31 32 33 34 35 36 37 38 39 40 41 42 43 44 45 46 47 48 49
000
FTUS43 KMKX 240846 AAA
TAFMKE
TAF AMD
KMKE 240846Z 2409/2512 19006KT P6SM SCT250
     FM241600 20010KT P6SM BKN090
     FM242000 21006KT P6SM VCTS BKN045CB
     FM250900 VRB03KT 2SM BR BKN035
     FM251100 34004KT 2SM BR OVC015=

USA.gov is the U.S. government's official web portal to all federal, state and local government web resources and services.